首页
METAR-TAF:

METAR-TAF

机场 :

克里沃罗格, 乌克兰

纬度: 48-03N, 经度: 033-13-12E, 海拔: 124米

当前天气观测

该预报发布于11小时和35分钟前的15:30 UTC
风速2节,风向多变
温度 26°C
湿度 48%
气压 1013 hPa
能见度10公里或以上
1500米以下无云,无积雨云

METAR: UKDR 111530Z VRB01MPS CAVOK 26/14 Q1013 R36/09//70 NOSIG

时间: 06:05 (03:05 UTC)

预报

该预报发布于16小时和4分钟前的11:01 UTC
预报有效从11日的 12点(UTC)到 12日的 12点(UTC)
风速10节,风向
能见度10公里或以上
散云层高于3000英尺, 积雨云.
短暂存在
从 11日的 12点(UTC)到 11日的 18点(UTC)
风速17节,风向多变,有时为29节阵风
能見度: 1100
多云层高于400英尺
多云层高于1500英尺, 积雨云.
雷暴, 雨, 飑
短暂存在
从 12日的 08点(UTC)到 12日的 12点(UTC)
风速17节,风向多变,有时为29节阵风
能見度: 1500
多云层高于500英尺
多云层高于1500英尺, 积雨云.
雷暴, 雨, 飑

TAF: UKDR 111101Z 1112/1212 01005MPS 9999 SCT030CB TX28/1212Z TN17/1203Z TEMPO 1112/1118 VRB09G15MPS 1100 TSRA SQ BKN004 BKN015CB TEMPO 1208/1212 VRB09G15MPS 1500 TSRA SQ BKN005 BKN015CB

超过4000个机场的气象观测和天气预报(METAR&TAF报告)。

可查询的气象台以黄色和红色小点在地图上表示。

将鼠标移到小点上方,可查看气象台名称。

然后点击查看天气观测和预报。

如需切换地图:点击带黑十字的绿色按钮放大地图;点击带横线的绿色按钮缩小地图;或者点击绿色箭头查看邻近地区的地图。


METAR-TAF: